Time;durP1;ratioP1;P1;durP2;ratioP2;P2;SDS_P1;SDS_P2;PMS_P1;PMS_P2;Temp;Humidity;BMP_temperature;BMP_pressure;BME280_temperature;BME280_humidity;BME280_pressure;Samples;Min_cycle;Max_cycle;Signal;HPM_P1;HPM_P2
2023/06/27 00:01:08;;;;;;;6.25;2.80;;;14.10;99.90;;;;;;4975646;28;20068;-75
2023/06/27 00:03:34;;;;;;;6.97;3.05;;;14.00;99.90;;;;;;4994943;28;20041;-75
2023/06/27 00:06:00;;;;;;;5.82;2.28;;;14.00;99.90;;;;;;4976136;28;20044;-75
2023/06/27 00:08:27;;;;;;;6.30;2.83;;;13.90;99.90;;;;;;4990798;28;20058;-74
2023/06/27 00:10:54;;;;;;;6.88;3.17;;;13.90;99.90;;;;;;4985329;28;20048;-75
2023/06/27 00:13:20;;;;;;;6.28;3.15;;;13.90;99.90;;;;;;4987216;28;21882;-74
2023/06/27 00:15:52;;;;;;;7.35;3.22;;;13.90;99.90;;;;;;4969497;28;20125;-75
2023/06/27 00:18:21;;;;;;;6.40;3.28;;;13.80;99.90;;;;;;4973461;28;20046;-75
2023/06/27 00:20:53;;;;;;;7.03;3.10;;;13.80;99.90;;;;;;4972422;28;20045;-74
2023/06/27 00:23:22;;;;;;;6.85;3.17;;;13.80;99.90;;;;;;4993927;28;20061;-75
2023/06/27 00:25:48;;;;;;;6.20;3.60;;;13.80;99.90;;;;;;4985381;28;20116;-74
2023/06/27 00:28:14;;;;;;;7.88;3.83;;;13.70;99.90;;;;;;4990325;28;20041;-74
2023/06/27 00:30:40;;;;;;;7.22;3.20;;;13.70;99.90;;;;;;4988193;28;20048;-77
2023/06/27 00:33:07;;;;;;;9.35;3.90;;;13.70;99.90;;;;;;4980213;28;20374;-75
2023/06/27 00:35:33;;;;;;;7.50;3.17;;;13.70;99.90;;;;;;4992509;28;20088;-76
2023/06/27 00:38:00;;;;;;;8.48;3.90;;;13.70;99.90;;;;;;4989285;28;20074;-75
2023/06/27 00:40:26;;;;;;;7.40;3.67;;;13.60;99.90;;;;;;4970719;28;20051;-75
2023/06/27 00:42:51;;;;;;;7.40;3.80;;;13.60;99.90;;;;;;4987132;28;20068;-76
2023/06/27 00:45:18;;;;;;;8.35;3.80;;;13.60;99.90;;;;;;4978842;28;20049;-75
2023/06/27 00:47:44;;;;;;;6.85;3.72;;;13.50;99.90;;;;;;4989747;28;20504;-75
2023/06/27 00:50:10;;;;;;;6.75;4.03;;;13.60;99.90;;;;;;4990177;28;20115;-75
2023/06/27 00:52:37;;;;;;;7.97;3.70;;;13.50;99.90;;;;;;4971684;28;20077;-76
2023/06/27 00:55:03;;;;;;;6.20;3.67;;;13.60;99.90;;;;;;4970559;28;20050;-76
2023/06/27 00:57:29;;;;;;;6.68;3.70;;;13.60;99.90;;;;;;4967434;28;20070;-75
2023/06/27 00:59:55;;;;;;;6.07;3.50;;;13.60;99.90;;;;;;4949072;28;20042;-75
2023/06/27 01:02:23;;;;;;;8.30;4.07;;;13.60;99.90;;;;;;4973558;28;20414;-75
2023/06/27 01:04:51;;;;;;;5.85;3.60;;;13.60;99.90;;;;;;4958030;28;20034;-75
2023/06/27 01:07:25;;;;;;;6.43;3.53;;;13.60;99.90;;;;;;4965395;28;20582;-75
2023/06/27 01:09:55;;;;;;;7.03;3.72;;;13.50;99.90;;;;;;4956842;28;20065;-75
2023/06/27 01:12:30;;;;;;;6.95;3.88;;;13.50;99.90;;;;;;4959231;28;20610;-75
2023/06/27 01:14:57;;;;;;;8.95;4.45;;;13.50;99.90;;;;;;4971948;28;20421;-75
2023/06/27 01:17:24;;;;;;;7.13;4.47;;;13.40;99.90;;;;;;4974226;28;20051;-75
2023/06/27 01:19:52;;;;;;;6.00;4.13;;;13.40;99.90;;;;;;4972046;28;20047;-76
2023/06/27 01:22:29;;;;;;;7.40;5.30;;;13.30;99.90;;;;;;4967519;28;20092;-76
2023/06/27 01:25:00;;;;;;;7.47;4.80;;;13.30;99.90;;;;;;4952363;28;20567;-75
2023/06/27 01:27:29;;;;;;;6.55;4.72;;;13.30;99.90;;;;;;4953883;28;20105;-75
2023/06/27 01:29:56;;;;;;;8.30;5.35;;;13.20;99.90;;;;;;4963302;28;20043;-75
2023/06/27 01:32:42;;;;;;;9.48;5.95;;;13.20;99.90;;;;;;4956787;28;20054;-76
2023/06/27 01:35:55;;;;;;;7.40;5.05;;;13.20;99.90;;;;;;4949183;28;20054;-77
2023/06/27 01:38:35;;;;;;;8.98;5.72;;;13.10;99.90;;;;;;4937941;28;20116;-75
2023/06/27 01:41:06;;;;;;;7.57;4.57;;;13.00;99.90;;;;;;4964468;28;20055;-74
2023/06/27 01:43:33;;;;;;;8.68;4.78;;;13.00;99.90;;;;;;4950953;28;20058;-75
2023/06/27 01:45:59;;;;;;;7.90;5.18;;;13.00;99.90;;;;;;4965825;28;20678;-75
2023/06/27 01:48:25;;;;;;;7.18;4.75;;;12.90;99.90;;;;;;4962783;28;20057;-77
2023/06/27 01:50:54;;;;;;;8.48;6.13;;;12.90;99.90;;;;;;4969006;28;20042;-75
2023/06/27 01:53:20;;;;;;;7.82;6.30;;;12.90;99.90;;;;;;4964178;28;20039;-74
2023/06/27 01:55:46;;;;;;;6.80;5.15;;;12.90;99.90;;;;;;4973954;28;20053;-76
2023/06/27 01:58:12;;;;;;;9.65;5.60;;;12.80;99.90;;;;;;4967219;28;20160;-75
2023/06/27 02:00:38;;;;;;;8.23;5.47;;;12.80;99.90;;;;;;4962546;28;20049;-76
2023/06/27 02:03:04;;;;;;;8.20;5.75;;;12.80;99.90;;;;;;4979637;28;20038;-76
2023/06/27 02:05:29;;;;;;;7.88;5.88;;;12.80;99.90;;;;;;4959879;28;20069;-76
2023/06/27 02:07:55;;;;;;;11.90;7.10;;;12.80;99.90;;;;;;4982004;28;20039;-76
2023/06/27 02:10:21;;;;;;;8.18;5.88;;;12.70;99.90;;;;;;4977015;28;20078;-76
2023/06/27 02:12:47;;;;;;;9.70;6.75;;;12.70;99.90;;;;;;4969594;28;20054;-75
2023/06/27 02:15:13;;;;;;;8.98;6.22;;;12.60;99.90;;;;;;4987216;28;20038;-78
2023/06/27 02:17:39;;;;;;;6.28;5.50;;;12.60;99.90;;;;;;4970677;28;20575;-77
2023/06/27 02:20:09;;;;;;;7.55;4.75;;;12.50;99.90;;;;;;4968905;28;20030;-76
2023/06/27 02:22:35;;;;;;;7.15;5.65;;;12.40;99.90;;;;;;5001158;28;20038;-77
2023/06/27 02:25:01;;;;;;;8.68;6.57;;;12.40;99.90;;;;;;4985703;28;20088;-76
2023/06/27 02:27:26;;;;;;;9.65;6.18;;;12.40;99.90;;;;;;4981523;28;20042;-76
2023/06/27 02:29:52;;;;;;;7.00;5.00;;;12.30;99.90;;;;;;5001741;28;20078;-77
2023/06/27 02:32:18;;;;;;;8.35;6.30;;;12.30;99.90;;;;;;4982147;28;20046;-75
2023/06/27 02:34:44;;;;;;;8.70;6.38;;;12.30;99.90;;;;;;4964885;28;20053;-76
2023/06/27 02:37:09;;;;;;;9.48;7.88;;;12.40;99.90;;;;;;4981620;28;20186;-77
2023/06/27 02:39:35;;;;;;;9.93;6.88;;;12.20;99.90;;;;;;4983973;28;20046;-75
2023/06/27 02:42:01;;;;;;;7.93;6.47;;;12.20;99.90;;;;;;4989374;28;20047;-76
2023/06/27 02:44:27;;;;;;;7.82;5.55;;;12.20;99.90;;;;;;4998243;28;20449;-76
2023/06/27 02:46:52;;;;;;;9.75;6.90;;;12.10;99.90;;;;;;4967179;28;20133;-76
2023/06/27 02:49:18;;;;;;;11.10;7.43;;;12.10;99.90;;;;;;4988531;28;21035;-75
2023/06/27 02:51:44;;;;;;;8.05;7.15;;;12.10;99.90;;;;;;4974286;28;20062;-76
2023/06/27 02:54:09;;;;;;;9.52;7.53;;;12.10;99.90;;;;;;4980923;28;20128;-75
2023/06/27 02:56:35;;;;;;;9.65;7.50;;;12.00;99.90;;;;;;4982133;28;20116;-76
2023/06/27 02:59:01;;;;;;;15.98;8.60;;;12.00;99.90;;;;;;4968453;28;20112;-76
2023/06/27 03:01:27;;;;;;;9.27;6.72;;;11.90;99.90;;;;;;4982138;28;20051;-76
2023/06/27 03:03:52;;;;;;;13.02;7.30;;;11.90;99.90;;;;;;4983594;28;20142;-76
2023/06/27 03:06:19;;;;;;;13.55;8.18;;;11.90;99.90;;;;;;4968128;28;20065;-76
2023/06/27 03:08:45;;;;;;;10.00;7.05;;;11.90;99.90;;;;;;4981629;28;20140;-76
2023/06/27 03:11:11;;;;;;;7.63;5.63;;;11.90;99.90;;;;;;4983064;28;20054;-75
2023/06/27 03:13:37;;;;;;;7.85;5.78;;;12.00;99.90;;;;;;4985107;28;20113;-76
2023/06/27 03:16:03;;;;;;;8.43;6.03;;;12.00;99.90;;;;;;4983219;28;20060;-76
2023/06/27 03:18:29;;;;;;;9.35;7.18;;;12.00;99.90;;;;;;4983997;28;20313;-76
2023/06/27 03:20:55;;;;;;;7.60;5.88;;;12.10;99.90;;;;;;4970408;28;20031;-76
2023/06/27 03:23:20;;;;;;;8.13;5.97;;;12.10;99.90;;;;;;4965155;28;20046;-76
2023/06/27 03:25:46;;;;;;;7.97;5.63;;;12.00;99.90;;;;;;4968496;28;20057;-76
2023/06/27 03:28:12;;;;;;;8.60;6.25;;;12.00;99.90;;;;;;4982565;28;20123;-76
2023/06/27 03:30:43;;;;;;;10.05;6.63;;;12.10;99.90;;;;;;4983464;28;20053;-76
2023/06/27 03:33:09;;;;;;;9.32;6.13;;;12.20;99.90;;;;;;4984063;28;20532;-76
2023/06/27 03:35:35;;;;;;;7.85;6.22;;;12.20;99.90;;;;;;4970255;28;20034;-76
2023/06/27 03:38:02;;;;;;;9.10;6.20;;;12.20;99.90;;;;;;4984723;28;20122;-77
2023/06/27 03:40:28;;;;;;;11.65;6.78;;;12.30;99.90;;;;;;4966990;28;20054;-75
2023/06/27 03:42:55;;;;;;;7.03;5.60;;;12.30;99.90;;;;;;4984226;28;20050;-75
2023/06/27 03:45:21;;;;;;;15.70;7.68;;;12.30;99.90;;;;;;4983366;28;20201;-75
2023/06/27 03:47:47;;;;;;;10.68;6.00;;;12.40;99.90;;;;;;4988214;28;20094;-75
2023/06/27 03:50:13;;;;;;;10.50;5.47;;;12.30;99.90;;;;;;4975809;28;20497;-75
2023/06/27 03:52:39;;;;;;;7.95;5.93;;;12.30;99.90;;;;;;4984576;28;20115;-75
2023/06/27 03:55:08;;;;;;;9.85;5.85;;;12.30;99.90;;;;;;4983112;28;20053;-75
2023/06/27 03:57:34;;;;;;;9.45;8.07;;;12.40;99.90;;;;;;4999375;28;20092;-76
2023/06/27 04:00:00;;;;;;;10.48;6.20;;;12.50;99.90;;;;;;4969714;28;20077;-75
2023/06/27 04:02:27;;;;;;;8.57;7.00;;;12.50;99.90;;;;;;4955818;28;20070;-77
2023/06/27 04:04:52;;;;;;;8.50;6.30;;;12.60;99.90;;;;;;4964843;28;20042;-75
2023/06/27 04:07:18;;;;;;;11.98;6.85;;;12.60;99.90;;;;;;4993657;28;20057;-74
2023/06/27 04:09:44;;;;;;;10.82;7.22;;;12.70;99.90;;;;;;4973548;28;20950;-74
2023/06/27 04:12:10;;;;;;;10.20;7.40;;;12.70;99.90;;;;;;4988611;28;20052;-75
2023/06/27 04:14:35;;;;;;;6.72;6.03;;;12.70;99.90;;;;;;4969342;28;20050;-75
2023/06/27 04:17:02;;;;;;;8.80;7.25;;;12.80;99.90;;;;;;4968019;28;20106;-76
2023/06/27 04:19:28;;;;;;;8.45;7.03;;;12.80;99.90;;;;;;4971850;28;20554;-76
2023/06/27 04:21:54;;;;;;;8.50;6.38;;;12.80;99.90;;;;;;4987051;28;20129;-75
2023/06/27 04:24:20;;;;;;;8.77;7.05;;;12.90;99.90;;;;;;4970584;28;20057;-76
2023/06/27 04:26:45;;;;;;;9.00;6.32;;;12.90;99.90;;;;;;4980711;28;20126;-75
2023/06/27 04:29:11;;;;;;;9.93;7.38;;;12.90;99.90;;;;;;4984886;28;20049;-76
2023/06/27 04:31:37;;;;;;;10.30;7.45;;;12.90;99.90;;;;;;4983137;28;20046;-76
2023/06/27 04:34:03;;;;;;;17.63;13.90;;;13.00;99.90;;;;;;4984799;28;20038;-76
2023/06/27 04:36:29;;;;;;;18.25;16.33;;;13.10;99.90;;;;;;4983086;28;20046;-76
2023/06/27 04:38:55;;;;;;;19.90;17.65;;;13.20;99.90;;;;;;4966108;28;20054;-76
2023/06/27 04:41:20;;;;;;;22.20;19.52;;;13.30;99.90;;;;;;4982977;28;20085;-75
2023/06/27 04:43:46;;;;;;;17.98;15.70;;;13.30;99.90;;;;;;4984310;28;20035;-75
2023/06/27 04:46:12;;;;;;;15.25;12.98;;;13.40;99.90;;;;;;4981875;28;20050;-76
2023/06/27 04:48:38;;;;;;;15.27;10.90;;;13.40;99.90;;;;;;4981810;28;20405;-75
2023/06/27 04:51:04;;;;;;;12.27;9.05;;;13.50;99.90;;;;;;4963447;28;20511;-75
2023/06/27 04:53:30;;;;;;;13.65;9.15;;;13.60;99.90;;;;;;4981142;28;20101;-75
2023/06/27 04:55:56;;;;;;;11.50;9.07;;;13.60;99.90;;;;;;4955770;28;20126;-76
2023/06/27 04:58:22;;;;;;;11.65;9.00;;;13.70;99.90;;;;;;4970661;28;20505;-76
2023/06/27 05:00:48;;;;;;;10.45;8.93;;;13.80;99.90;;;;;;4965654;28;20051;-75
2023/06/27 05:03:15;;;;;;;10.85;8.95;;;13.80;99.90;;;;;;4951731;28;20038;-76
2023/06/27 05:05:41;;;;;;;14.73;9.50;;;13.90;99.90;;;;;;4965923;28;20449;-75
2023/06/27 05:08:10;;;;;;;12.45;9.30;;;14.00;99.90;;;;;;4961905;28;20042;-75
2023/06/27 05:10:36;;;;;;;12.25;9.68;;;14.10;99.90;;;;;;4965072;28;20046;-75
2023/06/27 05:13:02;;;;;;;10.07;8.80;;;14.10;99.90;;;;;;4970931;28;20129;-75
2023/06/27 05:15:28;;;;;;;11.13;8.65;;;14.20;99.90;;;;;;4973698;28;20133;-75
2023/06/27 05:18:14;;;;;;;13.15;9.68;;;14.30;99.90;;;;;;4960252;28;20425;-76
2023/06/27 05:20:43;;;;;;;12.30;8.90;;;14.40;99.90;;;;;;4952241;28;20353;-75
2023/06/27 05:23:10;;;;;;;12.55;9.40;;;14.50;99.90;;;;;;4965091;28;20057;-75
2023/06/27 05:25:36;;;;;;;10.77;8.45;;;14.50;99.90;;;;;;4964306;28;20116;-75
2023/06/27 05:28:02;;;;;;;10.52;8.77;;;14.60;99.90;;;;;;4946725;28;20051;-75
2023/06/27 05:30:28;;;;;;;11.13;8.68;;;14.70;99.90;;;;;;4961297;28;20042;-76
2023/06/27 05:32:55;;;;;;;11.68;8.73;;;14.70;99.90;;;;;;4958298;28;20043;-76
2023/06/27 05:35:21;;;;;;;11.48;8.80;;;14.90;99.90;;;;;;4961273;28;20047;-76
2023/06/27 05:37:50;;;;;;;10.25;8.60;;;14.90;99.90;;;;;;4966059;28;20298;-74
2023/06/27 05:40:16;;;;;;;11.98;7.90;;;15.00;99.90;;;;;;4960365;28;20039;-75
2023/06/27 05:42:42;;;;;;;9.20;7.38;;;15.10;99.90;;;;;;4970946;28;20070;-75
2023/06/27 05:45:08;;;;;;;9.70;6.60;;;15.20;99.90;;;;;;4963446;28;20135;-75
2023/06/27 05:47:34;;;;;;;10.35;6.38;;;15.30;99.90;;;;;;4970050;28;20137;-75
2023/06/27 05:50:00;;;;;;;10.43;6.20;;;15.40;99.90;;;;;;4950316;28;20792;-74
2023/06/27 05:52:28;;;;;;;8.98;6.10;;;15.50;99.90;;;;;;4956187;28;20050;-74
2023/06/27 05:54:54;;;;;;;10.25;5.90;;;15.70;99.90;;;;;;4972504;28;20042;-73
2023/06/27 05:57:21;;;;;;;8.80;5.30;;;15.80;99.90;;;;;;4982682;28;20054;-74
2023/06/27 05:59:48;;;;;;;8.32;4.93;;;15.90;99.90;;;;;;4967962;28;20512;-74
2023/06/27 06:02:13;;;;;;;8.30;4.80;;;16.00;99.90;;;;;;4978885;28;20046;-74
2023/06/27 06:04:39;;;;;;;6.25;3.58;;;16.10;99.90;;;;;;4978979;28;20034;-73
2023/06/27 06:07:05;;;;;;;5.40;3.00;;;16.20;99.90;;;;;;5005893;28;20121;-74
2023/06/27 06:09:31;;;;;;;7.65;3.30;;;16.30;99.90;;;;;;4979708;28;20104;-76
2023/06/27 06:11:57;;;;;;;5.55;3.15;;;16.40;99.90;;;;;;4978339;28;20409;-75
2023/06/27 06:14:23;;;;;;;5.97;2.67;;;16.50;99.90;;;;;;4978222;28;20109;-75
2023/06/27 06:16:49;;;;;;;8.60;2.65;;;16.60;99.90;;;;;;4981512;28;20042;-75
2023/06/27 06:19:15;;;;;;;5.20;2.30;;;16.70;99.90;;;;;;4985984;28;20051;-74
2023/06/27 06:21:40;;;;;;;4.35;2.10;;;16.80;99.90;;;;;;4988426;28;20054;-75
2023/06/27 06:24:09;;;;;;;6.38;2.47;;;16.90;99.90;;;;;;4966338;28;20066;-75
2023/06/27 06:26:35;;;;;;;6.85;2.33;;;17.00;99.90;;;;;;4986172;28;20081;-74
2023/06/27 06:29:04;;;;;;;5.90;2.42;;;17.10;99.90;;;;;;4985302;28;20056;-75
2023/06/27 06:31:30;;;;;;;7.17;2.47;;;17.20;99.90;;;;;;4985484;28;20050;-75
2023/06/27 06:33:57;;;;;;;9.55;2.45;;;17.30;99.90;;;;;;4982851;28;20528;-75
2023/06/27 06:36:26;;;;;;;7.72;2.17;;;17.40;99.90;;;;;;4984702;28;20053;-75
2023/06/27 06:38:51;;;;;;;7.20;2.20;;;17.50;99.90;;;;;;4968643;28;20049;-75
2023/06/27 06:41:20;;;;;;;4.43;1.50;;;17.60;99.90;;;;;;4986791;28;20413;-75
2023/06/27 06:43:46;;;;;;;6.70;1.52;;;17.70;99.90;;;;;;4983193;28;20172;-75
2023/06/27 06:46:12;;;;;;;6.18;2.00;;;17.90;99.90;;;;;;4982518;28;20050;-75
2023/06/27 06:48:38;;;;;;;6.68;2.00;;;18.00;99.90;;;;;;4981161;28;20084;-75
2023/06/27 06:51:04;;;;;;;4.93;1.65;;;18.20;99.90;;;;;;4981441;28;20041;-74
2023/06/27 06:53:29;;;;;;;9.00;1.70;;;18.30;99.90;;;;;;4979263;28;20193;-74
2023/06/27 06:55:55;;;;;;;5.35;1.48;;;18.50;99.90;;;;;;4971459;28;20043;-74
2023/06/27 06:58:21;;;;;;;4.57;1.48;;;18.70;99.90;;;;;;4946897;28;20058;-74
2023/06/27 07:00:47;;;;;;;5.30;1.67;;;18.80;99.90;;;;;;4951495;28;20046;-74
2023/06/27 07:03:14;;;;;;;3.90;1.42;;;19.00;99.90;;;;;;4947487;28;20049;-74
2023/06/27 07:05:41;;;;;;;4.25;0.98;;;19.10;99.90;;;;;;4963476;28;20442;-74
2023/06/27 07:08:08;;;;;;;5.38;1.02;;;19.20;99.90;;;;;;4944634;28;20039;-75
2023/06/27 07:10:34;;;;;;;4.60;1.10;;;19.30;99.90;;;;;;4942305;28;20047;-74
2023/06/27 07:13:01;;;;;;;4.30;1.02;;;19.40;99.90;;;;;;4945188;28;20066;-74
2023/06/27 07:15:28;;;;;;;5.43;1.40;;;19.50;99.90;;;;;;4959130;28;20133;-74
2023/06/27 07:17:55;;;;;;;2.95;1.00;;;19.50;99.90;;;;;;4958817;28;20836;-74
2023/06/27 07:20:25;;;;;;;4.72;1.50;;;19.50;99.90;;;;;;4961921;28;20047;-73
2023/06/27 07:22:52;;;;;;;5.63;1.30;;;19.50;99.90;;;;;;4959012;28;20520;-74
2023/06/27 07:25:18;;;;;;;5.00;1.38;;;19.60;99.90;;;;;;4930258;28;20510;-74
2023/06/27 07:27:45;;;;;;;4.50;0.95;;;19.80;99.90;;;;;;4961670;28;20509;-74
2023/06/27 07:30:11;;;;;;;5.75;1.13;;;19.90;99.90;;;;;;4948606;28;20113;-74
2023/06/27 07:32:37;;;;;;;4.97;1.20;;;20.00;99.90;;;;;;4962481;28;20046;-74
2023/06/27 07:35:04;;;;;;;4.72;1.25;;;20.30;98.80;;;;;;4962191;28;20059;-75
2023/06/27 07:37:30;;;;;;;5.25;1.40;;;20.50;98.90;;;;;;4933642;28;20038;-75
2023/06/27 07:39:57;;;;;;;2.88;0.90;;;20.60;97.70;;;;;;4942237;28;20609;-75
2023/06/27 07:42:24;;;;;;;4.78;1.20;;;20.70;95.70;;;;;;4960959;28;20054;-75
2023/06/27 07:44:50;;;;;;;6.53;1.23;;;20.90;96.20;;;;;;4943945;28;20684;-74
2023/06/27 07:47:15;;;;;;;6.03;1.20;;;21.10;96.90;;;;;;4959132;28;20047;-75
2023/06/27 07:49:42;;;;;;;5.88;1.00;;;21.30;96.80;;;;;;4933961;28;20094;-75
2023/06/27 07:52:08;;;;;;;5.22;1.20;;;21.50;95.70;;;;;;4958844;28;20046;-75
2023/06/27 07:54:34;;;;;;;6.30;1.30;;;21.70;95.30;;;;;;4977963;28;20050;-75
2023/06/27 07:57:00;;;;;;;5.95;0.77;;;21.60;94.20;;;;;;4965742;28;21115;-75
2023/06/27 07:59:26;;;;;;;5.82;0.95;;;21.60;92.70;;;;;;4965464;28;20823;-75
2023/06/27 08:01:53;;;;;;;5.78;0.95;;;21.40;93.00;;;;;;4982339;28;20116;-74
2023/06/27 08:04:19;;;;;;;4.30;1.20;;;21.20;93.50;;;;;;4963600;28;20049;-74
2023/06/27 08:06:45;;;;;;;4.03;1.10;;;21.00;93.50;;;;;;4968137;28;20412;-74
2023/06/27 08:09:11;;;;;;;4.30;0.93;;;20.90;93.00;;;;;;4983467;28;20067;-74
2023/06/27 08:11:39;;;;;;;3.30;0.82;;;20.80;93.40;;;;;;4982662;28;20050;-74
2023/06/27 08:14:05;;;;;;;5.68;1.10;;;20.70;93.70;;;;;;4966129;28;20074;-74
2023/06/27 08:16:33;;;;;;;4.00;0.90;;;20.70;93.40;;;;;;4984300;28;20081;-75
2023/06/27 08:18:59;;;;;;;6.18;1.00;;;20.70;93.50;;;;;;4988250;28;20049;-74
2023/06/27 08:21:25;;;;;;;3.58;0.95;;;20.70;92.70;;;;;;4970658;28;22617;-75
2023/06/27 08:23:50;;;;;;;4.28;1.02;;;20.70;93.00;;;;;;4981844;28;20041;-75
2023/06/27 08:26:18;;;;;;;3.30;0.90;;;20.80;93.40;;;;;;4977995;28;20121;-75
2023/06/27 08:28:44;;;;;;;4.28;1.02;;;20.90;92.40;;;;;;4968655;28;20470;-75
2023/06/27 08:31:13;;;;;;;2.92;0.82;;;21.10;92.80;;;;;;4982224;28;20037;-75
2023/06/27 08:33:39;;;;;;;5.85;1.33;;;21.30;91.50;;;;;;4979839;28;20528;-75
2023/06/27 08:36:08;;;;;;;3.10;1.10;;;21.50;90.10;;;;;;4964367;28;20065;-75
2023/06/27 08:38:35;;;;;;;3.95;0.98;;;21.70;89.60;;;;;;4980769;28;20046;-75
2023/06/27 08:41:01;;;;;;;5.07;0.98;;;21.80;87.90;;;;;;4964868;28;20136;-74
2023/06/27 08:43:27;;;;;;;4.30;0.80;;;22.00;86.20;;;;;;4980655;28;20041;-74
2023/06/27 08:45:55;;;;;;;5.15;0.80;;;22.10;83.10;;;;;;4968552;28;20101;-75
2023/06/27 08:48:21;;;;;;;3.55;1.02;;;22.10;79.40;;;;;;4968741;28;20108;-75
2023/06/27 08:50:52;;;;;;;3.78;0.90;;;22.10;80.60;;;;;;4981755;28;20544;-74
2023/06/27 08:53:22;;;;;;;3.35;0.88;;;22.20;81.80;;;;;;4979690;28;20097;-74
2023/06/27 08:56:09;;;;;;;3.33;0.88;;;22.10;81.50;;;;;;4964413;28;20126;-74
2023/06/27 08:58:55;;;;;;;5.10;1.00;;;22.10;82.30;;;;;;4985249;28;20053;-75
2023/06/27 09:01:25;;;;;;;4.30;1.30;;;22.20;83.20;;;;;;4967937;28;20397;-75
2023/06/27 09:03:52;;;;;;;3.80;0.75;;;22.30;82.50;;;;;;4959315;28;20041;-74
2023/06/27 09:06:18;;;;;;;2.42;0.88;;;22.40;83.10;;;;;;4966142;28;20046;-74
2023/06/27 09:08:43;;;;;;;5.38;1.05;;;22.40;84.20;;;;;;4982440;28;20037;-74
2023/06/27 09:11:09;;;;;;;4.63;1.20;;;22.50;81.90;;;;;;4968753;28;20093;-75
2023/06/27 09:13:37;;;;;;;2.90;0.65;;;22.60;81.80;;;;;;4982756;28;20409;-74
2023/06/27 09:16:05;;;;;;;3.75;0.90;;;22.50;81.50;;;;;;4972588;28;20042;-75
2023/06/27 09:18:31;;;;;;;4.75;1.00;;;22.60;82.20;;;;;;4966613;28;20522;-74
2023/06/27 09:20:57;;;;;;;3.63;1.05;;;22.60;80.90;;;;;;4983294;28;20104;-74
2023/06/27 09:23:25;;;;;;;5.65;1.13;;;22.60;81.70;;;;;;4980159;28;20125;-74
2023/06/27 09:26:07;;;;;;;6.60;1.00;;;22.60;82.40;;;;;;4982264;28;20543;-74
2023/06/27 09:28:46;;;;;;;5.32;1.70;;;22.60;82.90;;;;;;4968260;28;20124;-74
2023/06/27 09:31:15;;;;;;;3.90;1.00;;;22.60;82.60;;;;;;4964503;28;20917;-73
2023/06/27 09:33:44;;;;;;;5.05;0.90;;;22.60;81.90;;;;;;4968331;28;20046;-74
2023/06/27 09:36:11;;;;;;;3.92;0.90;;;22.60;81.20;;;;;;4966865;28;20122;-73
2023/06/27 09:38:37;;;;;;;3.67;0.80;;;22.70;81.00;;;;;;4984011;28;20053;-74
2023/06/27 09:41:08;;;;;;;2.33;0.88;;;22.80;81.80;;;;;;4964946;28;20045;-74
2023/06/27 09:43:35;;;;;;;2.70;0.95;;;22.80;82.20;;;;;;4980428;28;20046;-75
2023/06/27 09:46:03;;;;;;;5.93;1.20;;;22.80;81.40;;;;;;4965501;28;20050;-74
2023/06/27 09:48:29;;;;;;;6.80;1.17;;;22.90;82.50;;;;;;4982669;28;20131;-75
2023/06/27 09:51:03;;;;;;;4.38;0.95;;;22.90;81.20;;;;;;4987126;28;20138;-75
2023/06/27 09:53:30;;;;;;;4.07;1.08;;;22.90;81.70;;;;;;4987428;28;20493;-75
2023/06/27 09:55:57;;;;;;;5.20;0.90;;;23.00;81.40;;;;;;4986003;28;20084;-74
2023/06/27 09:58:30;;;;;;;3.80;1.10;;;23.00;83.00;;;;;;4988145;28;20527;-75
2023/06/27 10:01:04;;;;;;;5.78;0.88;;;23.20;82.80;;;;;;4986818;28;20585;-75
2023/06/27 10:03:31;;;;;;;4.38;1.30;;;23.20;79.50;;;;;;4987875;28;20048;-75
2023/06/27 10:05:57;;;;;;;3.80;0.93;;;23.00;80.50;;;;;;4987825;28;20038;-74
2023/06/27 10:08:23;;;;;;;4.18;1.10;;;22.90;80.70;;;;;;4985105;28;20100;-75
2023/06/27 10:10:49;;;;;;;4.47;1.00;;;22.80;79.70;;;;;;4987096;28;20080;-75
2023/06/27 10:13:15;;;;;;;4.70;1.17;;;22.70;82.00;;;;;;4968080;28;20066;-74
2023/06/27 10:15:41;;;;;;;7.40;1.20;;;22.60;84.80;;;;;;4968623;28;20046;-73
2023/06/27 10:18:07;;;;;;;5.43;1.33;;;22.60;83.30;;;;;;4986054;28;20101;-75
2023/06/27 10:20:33;;;;;;;4.25;0.90;;;22.60;84.70;;;;;;4988007;28;20500;-74
2023/06/27 10:22:59;;;;;;;4.65;0.93;;;22.60;84.10;;;;;;4984419;28;20045;-74
2023/06/27 10:25:26;;;;;;;4.32;1.33;;;22.60;82.00;;;;;;4988183;28;20038;-74
2023/06/27 10:28:13;;;;;;;4.32;0.80;;;22.60;79.90;;;;;;4969264;28;20068;-74
2023/06/27 10:30:44;;;;;;;3.90;0.90;;;22.40;81.60;;;;;;5000183;28;20065;-74
2023/06/27 10:33:31;;;;;;;3.60;1.00;;;22.50;82.40;;;;;;4971159;28;20504;-74
2023/06/27 10:36:05;;;;;;;4.60;0.90;;;22.60;82.00;;;;;;4969857;28;20050;-74
2023/06/27 10:38:45;;;;;;;4.90;1.20;;;22.70;79.20;;;;;;4969207;28;20484;-74
2023/06/27 10:41:22;;;;;;;4.57;1.00;;;22.80;80.30;;;;;;4984157;28;20220;-74
2023/06/27 10:43:52;;;;;;;4.72;1.13;;;23.00;83.30;;;;;;4969086;28;20045;-74
2023/06/27 10:46:26;;;;;;;4.25;0.98;;;23.20;82.60;;;;;;4970859;28;20061;-74
2023/06/27 10:48:55;;;;;;;5.15;0.88;;;23.40;79.90;;;;;;4970352;28;20042;-74
2023/06/27 10:51:23;;;;;;;4.10;1.00;;;23.50;77.30;;;;;;4987535;28;20065;-74
2023/06/27 10:54:07;;;;;;;6.80;0.90;;;23.70;77.80;;;;;;4972245;28;20041;-74
2023/06/27 10:56:38;;;;;;;5.63;1.08;;;23.80;79.20;;;;;;4967710;28;20122;-74
2023/06/27 10:59:08;;;;;;;5.70;1.15;;;23.90;78.30;;;;;;4961540;28;20043;-74
2023/06/27 11:01:35;;;;;;;5.35;0.88;;;24.00;77.10;;;;;;4961281;28;20430;-74
2023/06/27 11:04:27;;;;;;;5.00;1.13;;;24.10;77.90;;;;;;4942868;28;20078;-73
2023/06/27 11:07:02;;;;;;;3.35;0.95;;;24.20;76.60;;;;;;4960491;28;20513;-74
2023/06/27 11:09:29;;;;;;;4.50;1.08;;;24.10;77.40;;;;;;4964110;28;20485;-74
2023/06/27 11:12:07;;;;;;;3.20;0.75;;;23.90;76.90;;;;;;4947806;28;20041;-74
2023/06/27 11:14:41;;;;;;;3.17;0.60;;;23.90;76.50;;;;;;4947149;28;20118;-74
2023/06/27 11:17:07;;;;;;;4.95;1.00;;;24.00;76.50;;;;;;4962504;28;20034;-74
2023/06/27 11:19:35;;;;;;;5.47;1.30;;;24.00;76.80;;;;;;4960365;28;20051;-74
2023/06/27 11:22:01;;;;;;;4.03;1.05;;;24.10;77.10;;;;;;4962300;28;20525;-74
2023/06/27 11:24:29;;;;;;;3.75;0.90;;;24.10;76.20;;;;;;4947709;28;20054;-74
2023/06/27 11:26:56;;;;;;;4.07;0.80;;;24.10;74.30;;;;;;4963651;28;20104;-74
2023/06/27 11:29:23;;;;;;;5.40;0.80;;;24.00;74.40;;;;;;4964444;28;20043;-74
2023/06/27 11:31:49;;;;;;;4.32;0.93;;;23.90;76.20;;;;;;4958684;28;20063;-74
2023/06/27 11:34:16;;;;;;;2.17;0.60;;;23.80;75.30;;;;;;4961822;28;20069;-73
2023/06/27 11:36:44;;;;;;;5.45;1.27;;;23.80;75.70;;;;;;4960891;28;20465;-74
2023/06/27 11:39:10;;;;;;;4.78;0.88;;;23.60;74.70;;;;;;4962796;28;20054;-74
2023/06/27 11:41:45;;;;;;;6.18;0.90;;;23.60;77.50;;;;;;4968258;28;20038;-75
2023/06/27 11:44:16;;;;;;;7.22;1.20;;;23.60;78.90;;;;;;4943872;28;20041;-74
2023/06/27 11:46:54;;;;;;;3.67;0.75;;;23.60;77.60;;;;;;4960774;28;20092;-74
2023/06/27 11:49:27;;;;;;;4.03;1.08;;;23.60;78.90;;;;;;4961828;28;20058;-74
2023/06/27 11:51:57;;;;;;;3.67;1.08;;;23.60;79.00;;;;;;4959296;28;20089;-74
2023/06/27 11:54:23;;;;;;;3.38;0.73;;;23.30;76.30;;;;;;4964909;28;20468;-74
2023/06/27 11:56:50;;;;;;;4.38;0.98;;;23.20;78.90;;;;;;4945688;28;20391;-74
2023/06/27 11:59:15;;;;;;;4.80;1.15;;;23.00;79.60;;;;;;4948600;28;20038;-75
2023/06/27 12:01:45;;;;;;;4.40;1.00;;;23.00;81.30;;;;;;4944357;28;20106;-73
2023/06/27 12:04:17;;;;;;;4.45;1.17;;;23.00;80.40;;;;;;4963240;28;20057;-74
2023/06/27 12:06:45;;;;;;;5.18;1.10;;;23.00;81.70;;;;;;4944547;28;20046;-73
2023/06/27 12:09:28;;;;;;;3.72;1.00;;;23.00;79.40;;;;;;4963567;28;20074;-73
2023/06/27 12:11:58;;;;;;;4.18;0.95;;;22.90;78.70;;;;;;4961672;28;20097;-73
2023/06/27 12:14:25;;;;;;;4.43;1.10;;;22.90;79.40;;;;;;4945128;28;20046;-74
2023/06/27 12:16:51;;;;;;;4.65;1.30;;;22.80;78.10;;;;;;4978447;28;20458;-73
2023/06/27 12:19:22;;;;;;;5.60;1.15;;;22.80;78.60;;;;;;4961856;28;20742;-74
2023/06/27 12:21:49;;;;;;;3.70;1.00;;;22.80;79.80;;;;;;4961926;28;20055;-75
2023/06/27 12:24:15;;;;;;;4.43;1.13;;;22.70;79.40;;;;;;4962134;28;20038;-74
2023/06/27 12:26:40;;;;;;;4.85;0.80;;;22.80;80.60;;;;;;4962421;28;20061;-74
2023/06/27 12:29:07;;;;;;;2.90;1.00;;;22.80;80.90;;;;;;4960784;28;20150;-73
2023/06/27 12:31:40;;;;;;;4.38;1.55;;;22.70;79.50;;;;;;4960136;28;20054;-74
2023/06/27 12:34:10;;;;;;;4.47;0.82;;;22.80;80.50;;;;;;4944542;28;20043;-74
2023/06/27 12:36:36;;;;;;;6.60;1.38;;;22.70;80.90;;;;;;4963747;28;20047;-74
2023/06/27 12:39:03;;;;;;;4.05;1.00;;;22.70;81.30;;;;;;4962750;28;21711;-74
2023/06/27 12:41:28;;;;;;;3.45;0.70;;;22.70;79.60;;;;;;4965196;28;20185;-74
2023/06/27 12:43:54;;;;;;;5.00;1.05;;;22.80;79.00;;;;;;4961806;28;20181;-74
2023/06/27 12:46:20;;;;;;;4.45;1.10;;;22.80;78.30;;;;;;4961070;28;20046;-73
2023/06/27 12:48:46;;;;;;;4.00;0.70;;;22.80;73.70;;;;;;4960015;28;20417;-75